Time;durP1;ratioP1;P1;durP2;ratioP2;P2;SDS_P1;SDS_P2;PMS_P1;PMS_P2;Temp;Humidity;BMP_temperature;BMP_pressure;BME280_temperature;BME280_humidity;BME280_pressure;Samples;Min_cycle;Max_cycle;Signal;HPM_P1;HPM_P2
2023/06/03 00:02:10;;;;;;;8.73;4.05;;;16.60;72.10;;;;;;5116555;28;20020;-75
2023/06/03 00:04:41;;;;;;;10.02;4.10;;;16.60;72.10;;;;;;5116514;28;20035;-75
2023/06/03 00:07:07;;;;;;;9.07;4.13;;;16.60;72.10;;;;;;5115464;28;20024;-75
2023/06/03 00:09:33;;;;;;;8.50;3.95;;;16.60;71.90;;;;;;5115510;28;20024;-75
2023/06/03 00:11:59;;;;;;;7.45;3.70;;;16.60;71.80;;;;;;5116429;28;20024;-76
2023/06/03 00:14:24;;;;;;;8.05;4.07;;;16.60;72.00;;;;;;5116351;28;20049;-75
2023/06/03 00:16:50;;;;;;;8.73;4.30;;;16.60;71.90;;;;;;5115375;28;20107;-76
2023/06/03 00:19:17;;;;;;;10.88;4.78;;;16.60;72.00;;;;;;5116270;28;20054;-76
2023/06/03 00:21:49;;;;;;;6.80;3.97;;;16.50;72.00;;;;;;5115024;28;20052;-75
2023/06/03 00:24:16;;;;;;;7.90;4.00;;;16.50;72.10;;;;;;5115221;28;20050;-75
2023/06/03 00:26:42;;;;;;;12.43;4.60;;;16.50;71.90;;;;;;5115067;28;20118;-76
2023/06/03 00:29:09;;;;;;;6.93;3.80;;;16.50;72.20;;;;;;5115990;28;20036;-75
2023/06/03 00:31:34;;;;;;;11.95;4.80;;;16.50;72.30;;;;;;5115007;28;20088;-75
2023/06/03 00:34:00;;;;;;;7.70;4.03;;;16.50;72.40;;;;;;5115076;28;20387;-75
2023/06/03 00:36:26;;;;;;;11.18;4.65;;;16.50;72.30;;;;;;5114977;28;20023;-75
2023/06/03 00:38:52;;;;;;;8.48;4.00;;;16.40;72.30;;;;;;5097967;28;20028;-75
2023/06/03 00:41:19;;;;;;;9.55;4.47;;;16.40;72.30;;;;;;5115831;28;20060;-75
2023/06/03 00:43:45;;;;;;;10.90;5.53;;;16.50;72.40;;;;;;5114917;28;20024;-75
2023/06/03 00:46:10;;;;;;;8.82;4.47;;;16.40;73.50;;;;;;5114850;28;20028;-75
2023/06/03 00:48:38;;;;;;;10.18;4.30;;;16.40;73.50;;;;;;5115619;28;20028;-75
2023/06/03 00:51:04;;;;;;;9.65;4.70;;;16.40;72.60;;;;;;5114822;28;20021;-75
2023/06/03 00:53:30;;;;;;;7.10;4.10;;;16.40;72.70;;;;;;5115728;28;20047;-75
2023/06/03 00:55:55;;;;;;;7.93;4.10;;;16.40;72.50;;;;;;5113708;28;20024;-75
2023/06/03 00:58:21;;;;;;;9.48;4.75;;;16.30;72.50;;;;;;5115511;28;20028;-75
2023/06/03 01:00:48;;;;;;;7.03;4.30;;;16.30;72.60;;;;;;5115580;28;20043;-76
2023/06/03 01:03:15;;;;;;;6.03;3.90;;;16.30;72.80;;;;;;5115567;28;20036;-76
2023/06/03 01:05:45;;;;;;;10.38;3.95;;;16.30;73.00;;;;;;5114490;28;20070;-75
2023/06/03 01:08:33;;;;;;;8.15;4.20;;;16.30;73.10;;;;;;5114380;28;20046;-75
2023/06/03 01:11:09;;;;;;;7.25;4.07;;;16.20;73.10;;;;;;5115338;28;20035;-75
2023/06/03 01:14:08;;;;;;;6.38;4.30;;;16.20;73.10;;;;;;5115257;28;20081;-75
2023/06/03 01:16:36;;;;;;;9.05;4.38;;;16.20;73.20;;;;;;5115080;28;20024;-75
2023/06/03 01:19:07;;;;;;;7.88;5.07;;;16.10;73.20;;;;;;5115060;28;20027;-75
2023/06/03 01:21:38;;;;;;;7.10;3.95;;;16.10;73.30;;;;;;5113916;28;20054;-75
2023/06/03 01:24:04;;;;;;;7.40;4.53;;;16.10;73.30;;;;;;5115043;28;20088;-75
2023/06/03 01:26:29;;;;;;;7.00;3.78;;;16.10;73.50;;;;;;5114945;28;20039;-75
2023/06/03 01:28:55;;;;;;;10.38;4.45;;;16.10;73.50;;;;;;5114796;28;20039;-75
2023/06/03 01:31:21;;;;;;;6.50;4.05;;;16.10;73.40;;;;;;5096933;28;20049;-75
2023/06/03 01:33:47;;;;;;;8.75;4.68;;;16.10;73.20;;;;;;5114743;28;20020;-75
2023/06/03 01:36:13;;;;;;;9.13;4.32;;;16.10;73.20;;;;;;5114779;28;20053;-76
2023/06/03 01:38:39;;;;;;;8.10;4.20;;;16.10;73.40;;;;;;5113851;28;20031;-75
2023/06/03 01:41:05;;;;;;;8.32;4.22;;;16.00;73.40;;;;;;5114650;28;20024;-75
2023/06/03 01:43:31;;;;;;;7.50;4.38;;;16.00;73.50;;;;;;5114746;28;20054;-75
2023/06/03 01:45:57;;;;;;;9.90;4.38;;;16.00;73.40;;;;;;5114573;28;20050;-75
2023/06/03 01:48:23;;;;;;;8.02;4.30;;;16.10;73.60;;;;;;5096473;28;20024;-75
2023/06/03 01:50:48;;;;;;;9.75;4.57;;;16.00;73.50;;;;;;5114500;28;20020;-75
2023/06/03 01:53:15;;;;;;;7.25;4.43;;;16.00;73.70;;;;;;5114439;28;20017;-75
2023/06/03 01:55:40;;;;;;;7.90;4.47;;;16.00;73.60;;;;;;5113451;28;20021;-75
2023/06/03 01:58:06;;;;;;;7.18;4.05;;;16.00;73.80;;;;;;5113433;28;20024;-75
2023/06/03 02:00:33;;;;;;;7.20;4.53;;;16.00;73.60;;;;;;5096397;28;20036;-76
2023/06/03 02:02:58;;;;;;;7.63;4.55;;;15.90;73.80;;;;;;5113428;28;20032;-75
2023/06/03 02:05:24;;;;;;;7.50;4.18;;;15.90;73.80;;;;;;5114239;28;20039;-75
2023/06/03 02:07:50;;;;;;;7.38;4.10;;;15.90;73.90;;;;;;5113246;28;20036;-75
2023/06/03 02:10:16;;;;;;;7.72;4.28;;;15.90;74.00;;;;;;5096307;28;20020;-75
2023/06/03 02:12:41;;;;;;;8.27;4.18;;;15.90;74.00;;;;;;5096230;28;20024;-75
2023/06/03 02:15:07;;;;;;;8.60;4.35;;;15.90;73.80;;;;;;5114074;28;20024;-75
2023/06/03 02:17:33;;;;;;;7.22;4.47;;;15.80;73.90;;;;;;5114013;28;20050;-75
2023/06/03 02:19:59;;;;;;;6.45;3.92;;;15.80;73.90;;;;;;5113791;28;20063;-75
2023/06/03 02:22:26;;;;;;;7.05;4.55;;;15.80;73.90;;;;;;5113974;28;20019;-75
2023/06/03 02:24:52;;;;;;;7.82;4.30;;;15.70;74.10;;;;;;5113018;28;20024;-75
2023/06/03 02:27:24;;;;;;;8.75;4.60;;;15.70;74.10;;;;;;5112904;28;20020;-75
2023/06/03 02:29:51;;;;;;;9.88;3.85;;;15.70;74.20;;;;;;5112898;28;20020;-75
2023/06/03 02:32:20;;;;;;;7.25;4.45;;;15.70;74.30;;;;;;5113829;28;20039;-76
2023/06/03 02:34:50;;;;;;;8.90;4.68;;;15.70;74.10;;;;;;5112816;28;20020;-75
2023/06/03 02:37:16;;;;;;;6.53;3.80;;;15.60;74.10;;;;;;5113735;28;20042;-75
2023/06/03 02:39:42;;;;;;;6.55;3.92;;;15.60;74.10;;;;;;5112740;28;20028;-75
2023/06/03 02:42:09;;;;;;;5.32;3.60;;;15.60;74.10;;;;;;5113679;28;20020;-75
2023/06/03 02:44:35;;;;;;;6.97;4.05;;;15.60;74.00;;;;;;5113648;28;20024;-75
2023/06/03 02:47:01;;;;;;;5.95;3.60;;;15.60;73.90;;;;;;5095998;28;20020;-75
2023/06/03 02:49:27;;;;;;;6.45;3.65;;;15.50;73.90;;;;;;5112609;28;20051;-75
2023/06/03 02:51:54;;;;;;;8.27;4.03;;;15.50;74.00;;;;;;5113708;28;20051;-75
2023/06/03 02:54:20;;;;;;;8.07;3.58;;;15.50;74.30;;;;;;5113646;28;20054;-75
2023/06/03 02:56:46;;;;;;;5.70;3.38;;;15.50;74.00;;;;;;5113528;28;20028;-75
2023/06/03 02:59:11;;;;;;;5.60;3.78;;;15.40;74.00;;;;;;5113501;28;20034;-75
2023/06/03 03:01:38;;;;;;;7.75;3.90;;;15.40;74.20;;;;;;5113478;28;20091;-75
2023/06/03 03:04:04;;;;;;;8.15;3.45;;;15.40;74.20;;;;;;5112403;28;20024;-75
2023/06/03 03:06:29;;;;;;;6.72;3.58;;;15.40;74.10;;;;;;5112435;28;20043;-75
2023/06/03 03:08:55;;;;;;;6.85;3.45;;;15.40;74.10;;;;;;5113357;28;20036;-75
2023/06/03 03:11:21;;;;;;;5.22;3.50;;;15.40;74.10;;;;;;5113384;28;20021;-75
2023/06/03 03:13:47;;;;;;;7.85;3.90;;;15.40;74.10;;;;;;5113361;28;20088;-75
2023/06/03 03:16:13;;;;;;;6.22;3.75;;;15.40;74.20;;;;;;5095645;28;20016;-75
2023/06/03 03:18:40;;;;;;;6.55;3.75;;;15.30;74.20;;;;;;5114018;28;20024;-75
2023/06/03 03:21:06;;;;;;;6.53;3.75;;;15.30;74.30;;;;;;5117216;28;20074;-75
2023/06/03 03:23:32;;;;;;;7.72;3.90;;;15.30;74.50;;;;;;5116291;28;20028;-75
2023/06/03 03:25:58;;;;;;;8.98;4.30;;;15.30;74.60;;;;;;5116343;28;20110;-75
2023/06/03 03:28:25;;;;;;;9.65;3.95;;;15.20;74.70;;;;;;5117213;28;20028;-75
2023/06/03 03:30:50;;;;;;;6.38;3.90;;;15.20;74.70;;;;;;5117249;28;20044;-75
2023/06/03 03:33:20;;;;;;;5.80;3.67;;;15.10;74.90;;;;;;5117072;28;20028;-75
2023/06/03 03:35:49;;;;;;;6.88;3.72;;;15.00;75.00;;;;;;5117121;28;20024;-75
2023/06/03 03:38:15;;;;;;;6.45;3.50;;;15.00;74.90;;;;;;5117076;28;20024;-75
2023/06/03 03:40:41;;;;;;;7.15;3.60;;;15.00;74.90;;;;;;5117050;28;20023;-75
2023/06/03 03:43:19;;;;;;;5.75;3.50;;;15.00;74.90;;;;;;5117009;28;20393;-75
2023/06/03 03:45:45;;;;;;;6.50;3.50;;;15.00;75.10;;;;;;5116926;28;20020;-75
2023/06/03 03:48:16;;;;;;;7.00;3.63;;;14.90;75.10;;;;;;5116842;28;20020;-75
2023/06/03 03:50:44;;;;;;;8.70;3.95;;;14.90;75.10;;;;;;5116805;28;20079;-75
2023/06/03 03:53:16;;;;;;;6.57;3.63;;;14.90;75.10;;;;;;5115833;28;20027;-75
2023/06/03 03:55:50;;;;;;;5.63;3.30;;;14.90;75.10;;;;;;5116927;28;20016;-75
2023/06/03 03:58:27;;;;;;;7.65;3.50;;;14.90;75.10;;;;;;5116732;28;20032;-76
2023/06/03 04:00:57;;;;;;;8.05;3.97;;;15.00;75.10;;;;;;5115701;28;20028;-75
2023/06/03 04:03:24;;;;;;;7.63;3.72;;;14.90;74.90;;;;;;5116731;28;20028;-75
2023/06/03 04:05:50;;;;;;;9.68;3.42;;;14.90;74.90;;;;;;5116550;28;20048;-76
2023/06/03 04:08:40;;;;;;;6.93;3.83;;;14.90;74.90;;;;;;5115498;28;20106;-76
2023/06/03 04:11:27;;;;;;;6.63;3.60;;;14.90;74.60;;;;;;5116525;28;20079;-76
2023/06/03 04:13:58;;;;;;;5.68;3.45;;;14.90;74.50;;;;;;5116473;28;20020;-75
2023/06/03 04:16:38;;;;;;;6.15;3.28;;;14.90;74.60;;;;;;5116408;28;20016;-75
2023/06/03 04:19:11;;;;;;;6.05;3.40;;;14.90;74.50;;;;;;5116490;28;20020;-75
2023/06/03 04:21:38;;;;;;;4.95;3.10;;;14.90;74.60;;;;;;5115119;28;20044;-75
2023/06/03 04:24:07;;;;;;;6.18;2.90;;;14.90;74.20;;;;;;5115169;28;20047;-76
2023/06/03 04:26:34;;;;;;;4.82;3.13;;;14.90;74.20;;;;;;5116139;28;20028;-76
2023/06/03 04:29:00;;;;;;;5.75;3.53;;;14.90;74.10;;;;;;5115077;28;20051;-75
2023/06/03 04:31:26;;;;;;;4.40;2.60;;;15.00;73.90;;;;;;5113786;28;20020;-76
2023/06/03 04:33:51;;;;;;;5.57;3.17;;;14.90;73.60;;;;;;5116105;28;20035;-75
2023/06/03 04:36:17;;;;;;;6.97;3.10;;;15.00;73.60;;;;;;5115958;28;20032;-76
2023/06/03 04:38:43;;;;;;;5.55;2.72;;;14.90;73.20;;;;;;5098052;28;20092;-75
2023/06/03 04:41:14;;;;;;;6.63;3.10;;;14.90;73.00;;;;;;5115888;28;20032;-75
2023/06/03 04:43:40;;;;;;;5.72;2.70;;;14.90;72.90;;;;;;5114924;28;20028;-76
2023/06/03 04:46:10;;;;;;;6.07;2.80;;;14.90;72.90;;;;;;5115814;28;20034;-75
2023/06/03 04:48:36;;;;;;;5.80;2.83;;;15.00;72.80;;;;;;5115820;28;20016;-76
2023/06/03 04:51:06;;;;;;;6.65;3.00;;;14.90;72.70;;;;;;5115734;28;20043;-75
2023/06/03 04:53:33;;;;;;;4.13;2.85;;;15.00;72.70;;;;;;5114805;28;20036;-75
2023/06/03 04:55:58;;;;;;;6.07;2.60;;;15.00;72.70;;;;;;5114651;28;20123;-75
2023/06/03 04:58:24;;;;;;;6.68;2.70;;;15.00;72.50;;;;;;5115541;28;20029;-75
2023/06/03 05:00:50;;;;;;;4.07;2.55;;;15.00;72.00;;;;;;5097572;28;20042;-76
2023/06/03 05:03:16;;;;;;;5.30;2.50;;;15.00;72.00;;;;;;5115446;28;20034;-75
2023/06/03 05:05:43;;;;;;;4.32;2.40;;;14.90;72.00;;;;;;5114365;28;20104;-75
2023/06/03 05:08:10;;;;;;;5.28;2.58;;;15.00;71.60;;;;;;5114304;28;20028;-76
2023/06/03 05:10:36;;;;;;;4.95;2.58;;;15.00;71.30;;;;;;5114329;28;20016;-76
2023/06/03 05:13:08;;;;;;;6.88;2.63;;;15.00;71.10;;;;;;5114354;28;20028;-76
2023/06/03 05:15:37;;;;;;;7.45;2.47;;;15.00;71.00;;;;;;5115268;28;20020;-76
2023/06/03 05:18:03;;;;;;;3.65;2.40;;;15.00;71.20;;;;;;5115189;28;20084;-76
2023/06/03 05:20:30;;;;;;;4.85;2.30;;;15.00;70.90;;;;;;5114916;28;20070;-76
2023/06/03 05:22:55;;;;;;;6.63;2.72;;;15.00;71.10;;;;;;5114044;28;20028;-76
2023/06/03 05:25:22;;;;;;;5.13;2.90;;;15.00;71.00;;;;;;5114139;28;20488;-75
2023/06/03 05:27:48;;;;;;;6.03;2.20;;;15.00;71.30;;;;;;5113881;28;20031;-76
2023/06/03 05:30:14;;;;;;;4.53;2.00;;;15.10;70.40;;;;;;5113966;28;20028;-75
2023/06/03 05:32:41;;;;;;;2.90;1.90;;;15.00;70.00;;;;;;5114008;28;20021;-75
2023/06/03 05:35:08;;;;;;;3.65;2.20;;;15.10;70.10;;;;;;5113770;28;20049;-75
2023/06/03 05:37:34;;;;;;;3.30;1.95;;;15.10;71.40;;;;;;5113729;28;20039;-75
2023/06/03 05:39:59;;;;;;;5.07;2.30;;;15.10;70.20;;;;;;5114770;28;20028;-76
2023/06/03 05:42:25;;;;;;;4.85;2.20;;;15.20;69.90;;;;;;5096339;28;20047;-75
2023/06/03 05:44:51;;;;;;;7.28;2.10;;;15.20;68.90;;;;;;5113720;28;20087;-75
2023/06/03 05:47:16;;;;;;;3.35;1.90;;;15.20;69.20;;;;;;5114404;28;20034;-75
2023/06/03 05:49:42;;;;;;;6.03;1.90;;;15.20;67.90;;;;;;5113664;28;20031;-75
2023/06/03 05:52:08;;;;;;;5.20;2.00;;;15.20;68.20;;;;;;5096574;28;20028;-76
2023/06/03 05:54:34;;;;;;;4.78;1.90;;;15.30;68.10;;;;;;5113518;28;20017;-76
2023/06/03 05:57:00;;;;;;;3.67;1.90;;;15.20;67.90;;;;;;5113419;28;20059;-76
2023/06/03 05:59:25;;;;;;;5.57;1.90;;;15.20;68.00;;;;;;5114513;28;20036;-76
2023/06/03 06:01:51;;;;;;;2.90;1.52;;;15.30;67.60;;;;;;5113396;28;20032;-76
2023/06/03 06:04:17;;;;;;;4.50;2.10;;;15.40;67.10;;;;;;5113261;28;20032;-76
2023/06/03 06:06:43;;;;;;;4.18;1.88;;;15.40;67.20;;;;;;5114237;28;20031;-75
2023/06/03 06:09:08;;;;;;;4.60;1.80;;;15.40;66.90;;;;;;5114131;28;20032;-76
2023/06/03 06:11:34;;;;;;;2.95;1.70;;;15.50;66.80;;;;;;5114122;28;20032;-76
2023/06/03 06:14:00;;;;;;;3.22;1.60;;;15.60;66.80;;;;;;5114152;28;20024;-76
2023/06/03 06:16:25;;;;;;;4.35;1.85;;;15.70;65.80;;;;;;5113248;28;20020;-76
2023/06/03 06:18:51;;;;;;;3.35;1.67;;;15.70;66.20;;;;;;5096073;28;20044;-76
2023/06/03 06:21:18;;;;;;;3.17;1.70;;;15.70;65.70;;;;;;5112894;28;20060;-76
2023/06/03 06:23:44;;;;;;;4.22;1.75;;;15.80;65.70;;;;;;5114121;28;20036;-75
2023/06/03 06:26:13;;;;;;;7.40;1.75;;;15.90;65.00;;;;;;5112961;28;20032;-76
2023/06/03 06:28:39;;;;;;;3.15;1.90;;;15.90;64.90;;;;;;5113849;28;20035;-76
2023/06/03 06:31:04;;;;;;;3.25;1.70;;;16.00;64.80;;;;;;5096016;28;20024;-74
2023/06/03 06:33:33;;;;;;;4.15;1.90;;;16.00;64.90;;;;;;5112746;28;20020;-75
2023/06/03 06:36:20;;;;;;;3.38;1.60;;;16.10;65.10;;;;;;5113777;28;20059;-75
2023/06/03 06:38:46;;;;;;;4.97;1.98;;;16.20;64.60;;;;;;5113792;28;20061;-74
2023/06/03 06:41:15;;;;;;;2.95;1.92;;;16.30;63.70;;;;;;5096210;28;20036;-75
2023/06/03 06:43:40;;;;;;;5.07;1.90;;;16.30;64.00;;;;;;5113639;28;20020;-75
2023/06/03 06:46:06;;;;;;;3.17;1.73;;;16.40;63.30;;;;;;5112711;28;20522;-75
2023/06/03 06:48:34;;;;;;;4.72;1.38;;;16.40;62.80;;;;;;5112582;28;20040;-75
2023/06/03 06:51:00;;;;;;;3.25;1.60;;;16.40;62.80;;;;;;5113615;28;20036;-75
2023/06/03 06:53:27;;;;;;;3.53;1.40;;;16.50;63.00;;;;;;5111878;28;20028;-75
2023/06/03 06:55:55;;;;;;;2.38;1.42;;;16.60;62.80;;;;;;5113565;28;20020;-75
2023/06/03 06:58:24;;;;;;;2.60;1.27;;;16.70;62.60;;;;;;5113569;28;20021;-75
2023/06/03 07:00:50;;;;;;;2.83;1.35;;;16.70;62.10;;;;;;5113497;28;20031;-75
2023/06/03 07:03:18;;;;;;;2.58;1.65;;;16.70;61.40;;;;;;5113454;28;20048;-75
2023/06/03 07:05:46;;;;;;;4.32;1.73;;;16.80;61.50;;;;;;5113465;28;20050;-75
2023/06/03 07:08:12;;;;;;;2.72;1.33;;;16.90;61.40;;;;;;5112552;28;20031;-75
2023/06/03 07:10:39;;;;;;;4.40;1.65;;;17.00;60.20;;;;;;5113438;28;20020;-75
2023/06/03 07:13:08;;;;;;;2.15;1.20;;;17.00;60.60;;;;;;5113435;28;20030;-75
2023/06/03 07:15:37;;;;;;;2.03;1.17;;;17.10;60.60;;;;;;5112429;28;20027;-75
2023/06/03 07:18:03;;;;;;;4.70;1.58;;;17.10;60.60;;;;;;5113321;28;20047;-75
2023/06/03 07:20:40;;;;;;;3.83;1.20;;;17.20;60.70;;;;;;5112261;28;20055;-75
2023/06/03 07:23:19;;;;;;;1.50;1.13;;;17.30;60.30;;;;;;5112257;28;20020;-75
2023/06/03 07:25:47;;;;;;;3.85;1.20;;;17.30;60.70;;;;;;5113358;28;20035;-75
2023/06/03 07:28:15;;;;;;;4.28;1.45;;;17.40;60.00;;;;;;5113167;28;20031;-75
2023/06/03 07:30:42;;;;;;;2.55;1.13;;;17.50;59.20;;;;;;5112251;28;20012;-75
2023/06/03 07:33:11;;;;;;;2.42;1.30;;;17.50;58.30;;;;;;5113208;28;20044;-75
2023/06/03 07:35:37;;;;;;;2.08;1.00;;;17.60;57.10;;;;;;5113258;28;20062;-75
2023/06/03 07:38:04;;;;;;;2.85;1.20;;;17.70;58.00;;;;;;5095365;28;20024;-75
2023/06/03 07:40:41;;;;;;;2.70;1.15;;;17.80;58.80;;;;;;5112250;28;20028;-75
2023/06/03 07:43:09;;;;;;;2.33;1.42;;;17.90;57.50;;;;;;5112048;28;20032;-75
2023/06/03 07:45:35;;;;;;;2.83;1.33;;;17.90;56.90;;;;;;5113098;28;20024;-75
2023/06/03 07:48:02;;;;;;;3.65;1.48;;;18.00;55.80;;;;;;5112982;28;20378;-75
2023/06/03 07:50:28;;;;;;;4.05;1.27;;;18.10;56.20;;;;;;5113046;28;20052;-75
2023/06/03 07:53:02;;;;;;;3.88;1.13;;;18.20;55.90;;;;;;5113026;28;20029;-75
2023/06/03 07:55:48;;;;;;;2.33;1.52;;;18.30;56.60;;;;;;5112986;28;20030;-75
2023/06/03 07:58:15;;;;;;;2.28;1.13;;;18.40;55.60;;;;;;5112008;28;20097;-75
2023/06/03 08:00:46;;;;;;;1.98;1.27;;;18.40;55.90;;;;;;5095126;28;20055;-75
2023/06/03 08:03:22;;;;;;;2.90;1.20;;;18.50;54.30;;;;;;5112928;28;20043;-75
2023/06/03 08:05:49;;;;;;;2.70;1.25;;;18.60;51.90;;;;;;5115324;28;20020;-75
2023/06/03 08:08:17;;;;;;;2.45;1.30;;;18.60;53.30;;;;;;5116404;28;20028;-75
2023/06/03 08:10:48;;;;;;;2.38;1.20;;;18.70;53.30;;;;;;5116490;28;20554;-75
2023/06/03 08:13:16;;;;;;;2.37;1.40;;;18.80;52.40;;;;;;5116630;28;20028;-75
2023/06/03 08:15:42;;;;;;;6.63;1.35;;;18.80;52.40;;;;;;5115448;28;20288;-75
2023/06/03 08:18:11;;;;;;;6.72;1.75;;;18.90;50.60;;;;;;5116447;28;20052;-76
2023/06/03 08:20:37;;;;;;;1.88;1.20;;;19.00;50.50;;;;;;5116111;28;20058;-75
2023/06/03 08:23:04;;;;;;;3.10;1.30;;;19.00;50.10;;;;;;5116224;28;20028;-75
2023/06/03 08:25:30;;;;;;;2.30;1.50;;;19.10;49.40;;;;;;5116201;28;20028;-75
2023/06/03 08:27:56;;;;;;;3.10;1.48;;;19.20;47.70;;;;;;5116208;28;20034;-75
2023/06/03 08:30:23;;;;;;;2.78;1.40;;;19.20;48.20;;;;;;5116069;28;20048;-75
2023/06/03 08:32:50;;;;;;;3.05;1.25;;;19.30;47.50;;;;;;5116085;28;20039;-75
2023/06/03 08:35:21;;;;;;;3.60;1.25;;;19.40;47.10;;;;;;5116048;28;20012;-75
2023/06/03 08:37:47;;;;;;;5.32;1.05;;;19.40;46.10;;;;;;5116128;28;20031;-75
2023/06/03 08:40:21;;;;;;;2.38;0.98;;;19.40;46.40;;;;;;5115917;28;20474;-75
2023/06/03 08:42:48;;;;;;;2.58;1.23;;;19.50;46.50;;;;;;5098857;28;20028;-75
2023/06/03 08:45:18;;;;;;;3.30;0.90;;;19.50;45.40;;;;;;5115827;28;20028;-75
2023/06/03 08:48:21;;;;;;;2.63;0.88;;;19.60;45.40;;;;;;5114702;28;20118;-75
2023/06/03 08:50:48;;;;;;;;;;;19.70;44.80;;;;;;5115115;28;20050;-75
2023/06/03 08:53:14;;;;;;;1.50;0.80;;;19.70;42.10;;;;;;5115675;28;19904;-75
2023/06/03 08:55:40;;;;;;;2.88;0.85;;;19.60;42.50;;;;;;5115652;28;20502;-75
2023/06/03 08:58:27;;;;;;;1.70;0.93;;;19.70;43.50;;;;;;5114622;28;20024;-75
2023/06/03 09:00:59;;;;;;;2.50;1.05;;;19.80;42.50;;;;;;5115703;28;20459;-76
2023/06/03 09:03:25;;;;;;;1.80;0.90;;;19.80;41.80;;;;;;5115566;28;20030;-75
2023/06/03 09:05:53;;;;;;;2.35;0.90;;;19.90;42.10;;;;;;5114403;28;20031;-75
2023/06/03 09:08:20;;;;;;;2.35;0.75;;;20.00;42.20;;;;;;5115480;28;20051;-75
2023/06/03 09:10:47;;;;;;;1.65;0.70;;;20.00;40.70;;;;;;5114317;28;20051;-75
2023/06/03 09:13:16;;;;;;;3.15;0.77;;;20.00;40.40;;;;;;5115268;28;20023;-75
2023/06/03 09:15:42;;;;;;;4.38;0.88;;;20.10;40.30;;;;;;5115143;28;20020;-75
2023/06/03 09:18:08;;;;;;;1.52;0.57;;;20.20;39.50;;;;;;5114533;28;20026;-75
2023/06/03 09:20:37;;;;;;;3.25;0.82;;;20.20;40.00;;;;;;5113863;28;20044;-75
2023/06/03 09:23:03;;;;;;;0.95;0.60;;;20.40;38.30;;;;;;5115070;28;20032;-75
2023/06/03 09:25:29;;;;;;;2.13;1.38;;;20.40;39.00;;;;;;5115002;28;20049;-76
2023/06/03 09:27:55;;;;;;;2.08;0.90;;;20.40;38.30;;;;;;5113844;28;20032;-75
2023/06/03 09:30:21;;;;;;;1.98;0.70;;;20.50;39.10;;;;;;5114945;28;20016;-75
2023/06/03 09:32:47;;;;;;;1.90;0.60;;;20.60;39.70;;;;;;5114879;28;20024;-75
2023/06/03 09:35:13;;;;;;;1.90;0.70;;;20.60;39.90;;;;;;5114749;28;20028;-75
2023/06/03 09:37:56;;;;;;;1.65;0.60;;;20.70;38.70;;;;;;5114782;28;20026;-75
2023/06/03 09:40:28;;;;;;;1.48;0.70;;;20.70;38.80;;;;;;5114917;28;20383;-74
2023/06/03 09:42:54;;;;;;;;;;;20.70;39.70;;;;;;5115092;28;20049;-75
2023/06/03 09:45:32;;;;;;;2.50;0.80;;;20.80;39.50;;;;;;5114680;28;19908;-75
2023/06/03 09:48:02;;;;;;;1.30;0.70;;;20.80;37.10;;;;;;5113542;28;20027;-75
2023/06/03 09:50:30;;;;;;;2.95;0.80;;;20.80;38.70;;;;;;5114564;28;20103;-75
2023/06/03 09:52:57;;;;;;;1.52;0.90;;;20.90;39.50;;;;;;5114524;28;20031;-75
2023/06/03 09:55:30;;;;;;;1.42;0.68;;;21.00;38.60;;;;;;5113623;28;20024;-75
2023/06/03 09:58:13;;;;;;;2.45;0.60;;;21.10;36.90;;;;;;5114439;28;20028;-75
2023/06/03 10:00:47;;;;;;;5.20;0.90;;;21.20;37.30;;;;;;5113583;28;20119;-75
2023/06/03 10:03:12;;;;;;;1.15;0.60;;;21.20;34.30;;;;;;5114357;28;20035;-75
2023/06/03 10:05:39;;;;;;;3.25;0.90;;;21.30;36.10;;;;;;5114277;28;20028;-76
2023/06/03 10:08:05;;;;;;;2.88;0.63;;;21.40;36.50;;;;;;5096396;28;20020;-75
2023/06/03 10:10:32;;;;;;;0.70;0.40;;;21.50;36.30;;;;;;5113121;28;20032;-75
2023/06/03 10:13:18;;;;;;;1.63;0.50;;;21.50;34.10;;;;;;5114109;28;20012;-75
2023/06/03 10:15:43;;;;;;;3.72;0.88;;;21.60;32.60;;;;;;5113105;28;20048;-75
2023/06/03 10:18:09;;;;;;;1.38;0.60;;;21.60;34.00;;;;;;5113101;28;20039;-75
2023/06/03 10:20:37;;;;;;;1.35;0.47;;;21.70;33.70;;;;;;5113805;28;20052;-76
2023/06/03 10:23:04;;;;;;;1.48;0.60;;;21.70;32.90;;;;;;5113847;28;20035;-75
2023/06/03 10:25:33;;;;;;;1.25;0.60;;;21.70;32.70;;;;;;5114019;28;20028;-76
2023/06/03 10:28:09;;;;;;;0.82;0.55;;;21.80;33.90;;;;;;5112825;28;20058;-75
2023/06/03 10:30:35;;;;;;;2.90;0.40;;;21.90;31.90;;;;;;5096848;28;20024;-75
2023/06/03 10:33:06;;;;;;;0.50;0.35;;;21.90;33.20;;;;;;5112871;28;20049;-75
2023/06/03 10:35:32;;;;;;;1.17;0.43;;;22.00;31.20;;;;;;5113719;28;20016;-75
2023/06/03 10:38:03;;;;;;;1.95;0.68;;;21.90;31.30;;;;;;5113759;28;20402;-75
2023/06/03 10:40:28;;;;;;;1.27;0.50;;;21.90;30.80;;;;;;5113733;28;20110;-75
2023/06/03 10:42:56;;;;;;;4.22;0.75;;;21.80;31.40;;;;;;5113635;28;20039;-75
2023/06/03 10:45:23;;;;;;;1.00;0.50;;;21.80;32.00;;;;;;5112675;28;20016;-75
2023/06/03 10:47:52;;;;;;;1.42;0.55;;;22.00;33.00;;;;;;5113536;28;20024;-75
2023/06/03 10:50:23;;;;;;;1.48;0.95;;;22.10;32.70;;;;;;5112629;28;20020;-75
2023/06/03 10:53:15;;;;;;;2.67;1.02;;;22.10;31.60;;;;;;5113745;28;20024;-75
2023/06/03 10:56:03;;;;;;;3.22;0.80;;;22.10;31.90;;;;;;5075561;28;20032;-75
2023/06/03 10:58:29;;;;;;;3.13;0.80;;;22.20;29.40;;;;;;5073974;28;20058;-75
2023/06/03 11:00:56;;;;;;;1.45;0.75;;;22.10;31.40;;;;;;5112421;28;20028;-75
2023/06/03 11:03:23;;;;;;;1.80;0.73;;;22.20;31.70;;;;;;5112456;28;20046;-75
2023/06/03 11:05:50;;;;;;;1.60;0.90;;;22.30;31.60;;;;;;5113389;28;20016;-75
2023/06/03 11:08:53;;;;;;;0.95;0.68;;;22.30;32.90;;;;;;5112352;28;20038;-75
2023/06/03 11:11:43;;;;;;;1.38;0.55;;;22.40;33.40;;;;;;5113359;28;20054;-75
2023/06/03 11:14:29;;;;;;;1.25;0.70;;;22.60;33.40;;;;;;5099784;28;20024;-76
2023/06/03 11:17:15;;;;;;;2.15;0.70;;;22.60;34.40;;;;;;5111768;28;20050;-76
2023/06/03 11:19:44;;;;;;;1.73;0.73;;;22.80;32.80;;;;;;5111959;28;20020;-76
2023/06/03 11:22:11;;;;;;;4.63;0.98;;;22.80;33.00;;;;;;5113358;28;20046;-75
2023/06/03 11:24:48;;;;;;;1.13;0.80;;;22.80;33.00;;;;;;5113238;28;20024;-75
2023/06/03 11:27:17;;;;;;;1.20;0.80;;;22.80;32.00;;;;;;5112371;28;20045;-76
2023/06/03 11:29:51;;;;;;;1.20;0.90;;;22.70;30.50;;;;;;5113203;28;20154;-76
2023/06/03 11:32:28;;;;;;;1.42;0.75;;;22.70;31.60;;;;;;5113336;28;20028;-75
2023/06/03 11:34:59;;;;;;;2.45;0.75;;;22.80;32.50;;;;;;5112964;28;20024;-76
2023/06/03 11:37:57;;;;;;;1.77;0.90;;;22.90;32.50;;;;;;5113189;28;20024;-76
2023/06/03 11:40:23;;;;;;;1.10;0.77;;;23.00;31.70;;;;;;5059353;28;20103;-76
2023/06/03 11:42:51;;;;;;;1.88;0.90;;;23.10;32.40;;;;;;5117005;28;20031;-75
2023/06/03 11:45:29;;;;;;;2.35;0.90;;;22.90;31.20;;;;;;5116956;28;20024;-75
2023/06/03 11:48:01;;;;;;;2.45;0.80;;;22.90;32.60;;;;;;5116974;28;20028;-75
2023/06/03 11:50:32;;;;;;;1.52;0.70;;;23.00;33.30;;;;;;5116007;28;20131;-76
2023/06/03 11:52:58;;;;;;;1.80;0.90;;;23.10;33.10;;;;;;5116839;28;20074;-75
2023/06/03 11:55:29;;;;;;;2.17;1.00;;;23.20;31.20;;;;;;5116801;28;20020;-75
2023/06/03 11:58:11;;;;;;;2.40;1.00;;;23.20;32.70;;;;;;5116695;28;20032;-75
2023/06/03 12:00:37;;;;;;;2.67;0.87;;;23.30;32.60;;;;;;5115775;28;20046;-75
2023/06/03 12:03:03;;;;;;;1.50;0.90;;;23.40;33.30;;;;;;5115686;28;20671;-76
2023/06/03 12:05:29;;;;;;;1.60;1.05;;;23.50;32.80;;;;;;5116634;28;20028;-76
2023/06/03 12:07:59;;;;;;;6.90;1.15;;;23.60;32.60;;;;;;5115572;28;20035;-76
2023/06/03 12:10:25;;;;;;;2.70;1.00;;;23.60;30.20;;;;;;5116628;28;20390;-76
2023/06/03 12:12:56;;;;;;;1.83;0.80;;;23.50;31.20;;;;;;5116486;28;20083;-76
2023/06/03 12:15:22;;;;;;;2.25;0.90;;;23.50;32.60;;;;;;5116412;28;20024;-76
2023/06/03 12:17:48;;;;;;;1.60;0.88;;;23.60;32.30;;;;;;5115313;28;20044;-76
2023/06/03 12:20:24;;;;;;;2.33;1.00;;;23.70;32.40;;;;;;5116132;28;20079;-76
2023/06/03 12:23:01;;;;;;;3.63;0.90;;;23.80;31.60;;;;;;5115236;28;20021;-76
2023/06/03 12:25:27;;;;;;;1.15;0.80;;;23.80;31.00;;;;;;5116351;28;20032;-76
2023/06/03 12:27:54;;;;;;;1.58;0.95;;;23.90;30.80;;;;;;5116054;28;20028;-76
2023/06/03 12:30:38;;;;;;;3.72;0.90;;;23.90;30.90;;;;;;5116211;28;20051;-76
2023/06/03 12:33:04;;;;;;;1.00;0.70;;;23.90;29.10;;;;;;5115217;28;20036;-76
2023/06/03 12:35:29;;;;;;;1.48;0.80;;;23.90;29.90;;;;;;5116023;28;20054;-76
2023/06/03 12:38:06;;;;;;;3.58;1.00;;;23.90;30.90;;;;;;5114892;28;20092;-76
2023/06/03 12:40:32;;;;;;;1.40;0.90;;;24.00;30.10;;;;;;5115964;28;20020;-76
2023/06/03 12:42:58;;;;;;;1.35;0.77;;;24.10;30.80;;;;;;5115864;28;20035;-76
2023/06/03 12:45:25;;;;;;;1.98;0.80;;;24.10;29.80;;;;;;5114907;28;20020;-76
2023/06/03 12:47:52;;;;;;;1.23;0.65;;;24.10;30.50;;;;;;5115748;28;20088;-76
2023/06/03 12:50:20;;;;;;;1.42;0.63;;;24.20;30.50;;;;;;5115782;28;20020;-76
2023/06/03 12:52:46;;;;;;;1.60;0.80;;;24.30;30.40;;;;;;5114490;28;20019;-76
2023/06/03 12:55:15;;;;;;;3.45;0.93;;;24.40;30.00;;;;;;5114547;28;20020;-76
2023/06/03 12:57:42;;;;;;;1.50;1.02;;;24.50;30.30;;;;;;5115663;28;20084;-76